createdAt,value
2023-05-20T00:00:57.121Z,10.30
2023-05-20T00:03:24.392Z,9.50
2023-05-20T00:05:51.631Z,11.60
2023-05-20T00:08:19.493Z,11.50
2023-05-20T00:10:46.637Z,12.00
2023-05-20T00:13:13.805Z,11.20
2023-05-20T00:15:41.170Z,30.00
2023-05-20T00:18:08.509Z,14.00
2023-05-20T00:20:35.695Z,11.70
2023-05-20T00:23:03.133Z,14.00
2023-05-20T00:25:32.127Z,12.40
2023-05-20T00:27:59.493Z,11.20
2023-05-20T00:30:26.778Z,12.90
2023-05-20T00:32:54.315Z,13.20
2023-05-20T00:35:21.765Z,11.90
2023-05-20T00:37:49.113Z,11.30
2023-05-20T00:40:16.515Z,13.00
2023-05-20T00:42:44.037Z,13.80
2023-05-20T00:45:11.431Z,11.70
2023-05-20T00:47:39.566Z,13.10
2023-05-20T00:50:10.460Z,11.40
2023-05-20T00:52:39.164Z,11.70
2023-05-20T00:55:06.620Z,11.90
2023-05-20T00:57:33.776Z,11.80
2023-05-20T01:00:02.033Z,12.50
2023-05-20T01:02:29.856Z,12.00
2023-05-20T01:04:57.833Z,12.20
2023-05-20T01:07:26.234Z,12.40
2023-05-20T01:09:54.539Z,12.00
2023-05-20T01:12:28.481Z,12.40
2023-05-20T01:15:13.259Z,12.50
2023-05-20T01:17:45.428Z,11.60
2023-05-20T01:20:15.399Z,12.00
2023-05-20T01:22:57.204Z,11.70
2023-05-20T01:25:27.689Z,11.60
2023-05-20T01:28:00.969Z,12.90
2023-05-20T01:30:35.895Z,13.10
2023-05-20T01:33:08.611Z,11.20
2023-05-20T01:35:36.960Z,12.20
2023-05-20T01:38:06.836Z,12.90
2023-05-20T01:40:35.864Z,11.90
2023-05-20T01:43:03.996Z,13.70
2023-05-20T01:45:31.933Z,12.70
2023-05-20T01:48:00.107Z,12.80
2023-05-20T01:50:27.434Z,12.80
2023-05-20T01:52:54.582Z,12.30
2023-05-20T01:55:21.916Z,11.90
2023-05-20T01:57:49.070Z,12.00
2023-05-20T02:00:16.388Z,11.70
2023-05-20T02:02:45.091Z,12.00
2023-05-20T02:05:13.340Z,11.40
2023-05-20T02:07:43.020Z,11.40
2023-05-20T02:10:10.902Z,20.00
2023-05-20T02:12:38.286Z,10.30
2023-05-20T02:15:06.275Z,10.70
2023-05-20T02:17:33.475Z,11.70
2023-05-20T02:20:00.835Z,9.60
2023-05-20T02:22:28.003Z,11.50
2023-05-20T02:24:55.269Z,10.20
2023-05-20T02:27:22.504Z,11.70
2023-05-20T02:29:49.624Z,12.40
2023-05-20T02:32:20.982Z,11.40
2023-05-20T02:34:48.209Z,11.70
2023-05-20T02:37:15.373Z,12.10
2023-05-20T02:39:42.561Z,11.30
2023-05-20T02:42:09.802Z,12.20
2023-05-20T02:44:36.921Z,12.20
2023-05-20T02:47:04.331Z,11.50
2023-05-20T02:49:31.659Z,12.10
2023-05-20T02:51:59.247Z,12.10
2023-05-20T02:54:26.537Z,12.00
2023-05-20T02:56:53.740Z,12.20
2023-05-20T02:59:20.878Z,11.80
2023-05-20T03:01:48.073Z,12.20
2023-05-20T03:04:15.387Z,12.10
2023-05-20T03:06:44.848Z,14.00
2023-05-20T03:09:12.166Z,14.50
2023-05-20T03:11:39.966Z,13.80
2023-05-20T03:14:07.134Z,14.70
2023-05-20T03:16:35.680Z,13.60
2023-05-20T03:19:03.256Z,12.50
2023-05-20T03:21:30.562Z,12.20
2023-05-20T03:23:58.020Z,12.60
2023-05-20T03:26:25.981Z,10.90
2023-05-20T03:28:53.045Z,13.30
2023-05-20T03:31:20.454Z,11.60
2023-05-20T03:33:47.812Z,10.40
2023-05-20T03:36:14.929Z,12.50
2023-05-20T03:38:42.125Z,11.50
2023-05-20T03:41:09.366Z,10.50
2023-05-20T03:43:36.663Z,11.40
2023-05-20T03:46:03.791Z,11.20
2023-05-20T03:48:30.973Z,11.10
2023-05-20T03:50:58.208Z,10.20
2023-05-20T03:53:25.908Z,10.40
2023-05-20T03:55:53.370Z,9.00
2023-05-20T03:58:23.534Z,9.80
2023-05-20T04:00:50.738Z,8.70
2023-05-20T04:03:18.589Z,8.40
2023-05-20T04:05:46.390Z,9.10
2023-05-20T04:08:19.168Z,10.80
2023-05-20T04:10:46.516Z,10.30
2023-05-20T04:13:14.465Z,10.10
2023-05-20T04:15:42.229Z,9.30
2023-05-20T04:18:10.585Z,9.00
2023-05-20T04:20:38.374Z,9.20
2023-05-20T04:23:05.778Z,9.60
2023-05-20T04:25:33.548Z,9.50
2023-05-20T04:28:00.937Z,9.30
2023-05-20T04:30:29.246Z,10.20
2023-05-20T04:32:56.428Z,10.20
2023-05-20T04:35:26.541Z,9.70
2023-05-20T04:37:56.005Z,11.30
2023-05-20T04:40:23.303Z,12.00
2023-05-20T04:42:51.185Z,8.60
2023-05-20T04:45:19.039Z,10.10
2023-05-20T04:47:46.260Z,9.90
2023-05-20T04:50:14.989Z,10.40
2023-05-20T04:52:43.452Z,9.00
2023-05-20T04:55:12.348Z,9.20
2023-05-20T04:57:42.466Z,8.80
2023-05-20T05:00:13.606Z,8.80
2023-05-20T05:02:41.743Z,8.60
2023-05-20T05:05:09.092Z,8.40
2023-05-20T05:07:36.725Z,7.70
2023-05-20T05:10:04.122Z,8.70
2023-05-20T05:12:31.906Z,9.40
2023-05-20T05:14:59.521Z,8.80
2023-05-20T05:17:29.138Z,8.00
2023-05-20T05:19:57.395Z,6.50
2023-05-20T05:22:24.782Z,6.50
2023-05-20T05:24:52.597Z,7.90
2023-05-20T05:27:19.808Z,7.20
2023-05-20T05:29:46.911Z,7.60
2023-05-20T05:32:13.998Z,7.90
2023-05-20T05:34:41.134Z,7.10
2023-05-20T05:37:08.256Z,6.70
2023-05-20T05:39:37.956Z,7.00
2023-05-20T05:42:05.612Z,6.50
2023-05-20T05:44:36.693Z,5.80
2023-05-20T05:47:07.059Z,6.00
2023-05-20T05:49:35.136Z,6.10
2023-05-20T05:52:03.357Z,7.10
2023-05-20T05:54:30.543Z,5.50
2023-05-20T05:56:57.827Z,5.00
2023-05-20T05:59:26.084Z,5.30
2023-05-20T06:02:07.107Z,7.90
2023-05-20T06:04:34.489Z,4.90
2023-05-20T06:07:02.446Z,5.00
2023-05-20T06:09:30.495Z,6.00
2023-05-20T06:11:58.164Z,5.50
2023-05-20T06:14:25.293Z,5.40
2023-05-20T06:16:52.811Z,5.30
2023-05-20T06:19:20.087Z,6.00
2023-05-20T06:21:47.254Z,5.10
2023-05-20T06:24:14.709Z,5.30
2023-05-20T06:26:42.057Z,5.50
2023-05-20T06:29:09.246Z,5.40
2023-05-20T06:31:36.801Z,5.10
2023-05-20T06:34:04.277Z,4.70
2023-05-20T06:36:33.629Z,6.20
2023-05-20T06:39:12.664Z,5.50
2023-05-20T06:41:43.250Z,6.00
2023-05-20T06:44:10.971Z,6.00
2023-05-20T06:46:58.816Z,5.60
2023-05-20T06:49:27.279Z,6.00
2023-05-20T06:51:55.660Z,6.80
2023-05-20T06:54:23.014Z,5.70
2023-05-20T06:56:50.120Z,6.30
2023-05-20T06:59:17.374Z,5.70
2023-05-20T07:01:44.827Z,5.90
2023-05-20T07:04:12.877Z,5.50
2023-05-20T07:06:40.251Z,5.70
2023-05-20T07:09:07.321Z,4.90
2023-05-20T07:11:34.500Z,5.40
2023-05-20T07:14:01.791Z,5.40
2023-05-20T07:16:32.660Z,5.00
2023-05-20T07:19:00.206Z,5.30
2023-05-20T07:21:27.397Z,5.60
2023-05-20T07:24:17.968Z,4.90
2023-05-20T07:26:45.114Z,6.20
2023-05-20T07:29:12.435Z,4.50
2023-05-20T07:31:39.854Z,4.90
2023-05-20T07:34:07.450Z,4.60
2023-05-20T07:36:34.576Z,3.70
2023-05-20T07:39:09.029Z,5.50
2023-05-20T07:41:39.926Z,5.90
2023-05-20T07:44:08.900Z,4.80
2023-05-20T07:46:39.348Z,3.90
2023-05-20T07:49:07.296Z,4.40
2023-05-20T07:51:34.944Z,4.50
2023-05-20T07:54:02.123Z,4.80
2023-05-20T07:56:29.687Z,4.40
2023-05-20T07:58:58.715Z,4.90
2023-05-20T08:01:28.985Z,4.50
2023-05-20T08:03:56.500Z,4.70
2023-05-20T08:06:27.296Z,5.60
2023-05-20T08:08:56.258Z,5.60
2023-05-20T08:11:28.355Z,4.30
2023-05-20T08:13:55.658Z,4.70
2023-05-20T08:16:23.268Z,5.40
2023-05-20T08:18:50.673Z,3.80
2023-05-20T08:21:20.085Z,4.10
2023-05-20T08:23:47.292Z,3.90
2023-05-20T08:26:14.463Z,5.30
2023-05-20T08:28:42.349Z,4.80
2023-05-20T08:31:11.148Z,4.30
2023-05-20T08:33:38.449Z,4.90
2023-05-20T08:36:08.467Z,5.00
2023-05-20T08:38:36.776Z,6.50
2023-05-20T08:41:04.277Z,6.00
2023-05-20T08:43:32.846Z,5.30
2023-05-20T08:46:03.120Z,5.80
2023-05-20T08:48:30.926Z,5.40
2023-05-20T08:50:58.340Z,6.00
2023-05-20T08:53:27.050Z,5.90
2023-05-20T08:56:00.849Z,5.70
2023-05-20T08:58:32.938Z,4.50
2023-05-20T09:01:00.133Z,6.40
2023-05-20T09:03:27.936Z,7.10
2023-05-20T09:06:07.021Z,7.80
2023-05-20T09:08:34.761Z,7.40
2023-05-20T09:11:02.729Z,7.40
2023-05-20T09:13:32.936Z,7.70
2023-05-20T09:16:02.359Z,8.00
2023-05-20T09:18:30.127Z,8.00
2023-05-20T09:20:57.718Z,8.30
2023-05-20T09:23:28.310Z,8.20
2023-05-20T09:25:55.426Z,6.90
2023-05-20T09:28:26.890Z,7.70
2023-05-20T09:30:59.786Z,8.40
2023-05-20T09:33:32.381Z,6.60
2023-05-20T09:38:40.085Z,6.10
2023-05-20T09:41:11.743Z,5.90
2023-05-20T09:43:42.757Z,5.50
2023-05-20T09:46:11.094Z,5.10
2023-05-20T09:48:38.808Z,4.40
2023-05-20T09:51:08.253Z,4.60
2023-05-20T09:53:40.031Z,5.00
2023-05-20T09:56:07.566Z,5.10
2023-05-20T09:58:36.803Z,4.70
2023-05-20T10:01:04.082Z,4.60
2023-05-20T10:03:33.788Z,5.00
2023-05-20T10:06:17.675Z,5.30
2023-05-20T10:08:55.752Z,5.20
2023-05-20T10:11:41.737Z,4.60
2023-05-20T10:14:33.899Z,5.00
2023-05-20T10:17:10.837Z,5.20
2023-05-20T10:19:38.796Z,5.60
2023-05-20T10:22:10.745Z,5.60
2023-05-20T10:24:38.470Z,4.40
2023-05-20T10:27:09.930Z,4.90
2023-05-20T10:29:50.550Z,5.40
2023-05-20T10:32:27.866Z,4.20
2023-05-20T10:35:01.513Z,5.40
2023-05-20T10:37:30.939Z,5.50
2023-05-20T10:40:07.540Z,4.80
2023-05-20T10:42:34.692Z,5.30
2023-05-20T10:45:01.795Z,4.90
2023-05-20T10:47:29.199Z,6.00
2023-05-20T10:49:56.746Z,3.70
2023-05-20T10:52:25.260Z,4.10
2023-05-20T10:54:59.821Z,5.10
2023-05-20T10:57:28.319Z,4.30
2023-05-20T10:59:56.576Z,4.30
2023-05-20T11:02:27.395Z,5.30
2023-05-20T11:05:00.950Z,4.10
2023-05-20T11:07:32.612Z,4.10
2023-05-20T11:10:00.998Z,4.90
2023-05-20T11:12:28.612Z,5.10
2023-05-20T11:14:55.791Z,5.30
2023-05-20T11:17:22.935Z,4.80
2023-05-20T11:19:51.665Z,5.10
2023-05-20T11:22:18.845Z,4.30
2023-05-20T11:24:46.743Z,4.60
2023-05-20T11:27:13.808Z,4.30
2023-05-20T11:29:41.195Z,5.00
2023-05-20T11:32:14.003Z,4.00
2023-05-20T11:34:43.537Z,4.60
2023-05-20T11:37:12.257Z,5.50
2023-05-20T11:39:39.869Z,4.60
2023-05-20T11:42:07.035Z,4.70
2023-05-20T11:44:34.536Z,4.30
2023-05-20T11:47:03.512Z,4.80
2023-05-20T11:49:31.401Z,5.10
2023-05-20T11:51:59.057Z,4.70
2023-05-20T11:54:26.645Z,4.70
2023-05-20T11:56:56.057Z,5.40
2023-05-20T11:59:25.394Z,5.00
2023-05-20T12:01:52.731Z,4.30
2023-05-20T12:04:20.027Z,4.40
2023-05-20T12:06:47.289Z,4.40
2023-05-20T12:09:14.448Z,5.30
2023-05-20T12:11:42.392Z,4.80
2023-05-20T12:14:10.142Z,4.20
2023-05-20T12:16:38.295Z,4.70
2023-05-20T12:19:05.841Z,4.80
2023-05-20T12:21:33.272Z,5.10
2023-05-20T12:24:01.328Z,4.50
2023-05-20T12:26:29.903Z,5.20
2023-05-20T12:28:57.407Z,5.30
2023-05-20T12:31:25.467Z,5.10
2023-05-20T12:33:52.739Z,5.40
2023-05-20T12:36:19.913Z,5.20
2023-05-20T12:38:47.339Z,5.40
2023-05-20T12:41:22.148Z,4.60
2023-05-20T12:43:49.336Z,5.20
2023-05-20T12:46:16.554Z,5.70
2023-05-20T12:48:43.704Z,5.10
2023-05-20T12:51:10.809Z,6.20
2023-05-20T12:53:37.874Z,5.50
2023-05-20T12:56:06.176Z,4.90
2023-05-20T12:58:34.263Z,4.70
2023-05-20T13:01:01.719Z,4.30
2023-05-20T13:03:28.946Z,4.30
2023-05-20T13:05:56.984Z,5.10
2023-05-20T13:08:24.419Z,4.50
2023-05-20T13:10:51.603Z,4.30
2023-05-20T13:13:21.893Z,4.90
2023-05-20T13:15:49.786Z,4.00
2023-05-20T13:18:17.438Z,4.30
2023-05-20T13:20:44.552Z,5.00
2023-05-20T13:23:12.294Z,4.90
2023-05-20T13:25:39.450Z,5.40
2023-05-20T13:28:06.745Z,5.60
2023-05-20T13:30:34.498Z,5.10
2023-05-20T13:33:01.977Z,4.80
2023-05-20T13:35:29.096Z,5.00
2023-05-20T13:37:56.196Z,6.40
2023-05-20T13:40:23.868Z,6.80
2023-05-20T13:42:51.261Z,6.70
2023-05-20T13:45:18.980Z,5.10
2023-05-20T13:47:46.651Z,5.20
2023-05-20T13:50:13.954Z,5.40
2023-05-20T13:52:41.491Z,4.80
2023-05-20T13:55:08.821Z,5.70
2023-05-20T13:57:35.949Z,5.40
2023-05-20T14:00:04.476Z,4.80
2023-05-20T14:02:36.148Z,4.90
2023-05-20T14:05:03.661Z,4.80
2023-05-20T14:07:31.037Z,5.10
2023-05-20T14:09:58.219Z,4.80
2023-05-20T14:12:25.388Z,4.60
2023-05-20T14:14:52.910Z,4.60
2023-05-20T14:17:20.078Z,4.50
2023-05-20T14:19:47.376Z,5.40
2023-05-20T14:22:15.832Z,4.70
2023-05-20T14:24:43.090Z,5.50
2023-05-20T14:27:11.715Z,4.80
2023-05-20T14:29:38.815Z,5.20
2023-05-20T14:32:06.495Z,4.30
2023-05-20T14:34:33.608Z,5.30
2023-05-20T14:37:05.856Z,4.90
2023-05-20T14:39:32.988Z,4.80
2023-05-20T14:42:00.144Z,4.90
2023-05-20T14:44:27.478Z,3.80
2023-05-20T14:46:54.698Z,4.60
2023-05-20T14:49:22.024Z,3.90
2023-05-20T14:51:49.129Z,5.10
2023-05-20T14:54:16.806Z,4.90
2023-05-20T14:56:43.910Z,4.50
2023-05-20T14:59:11.685Z,4.70
2023-05-20T15:01:38.878Z,5.00
2023-05-20T15:04:06.294Z,4.00
2023-05-20T15:06:35.996Z,4.70
2023-05-20T15:09:03.934Z,5.20
2023-05-20T15:11:31.049Z,5.20
2023-05-20T15:13:59.134Z,4.00
2023-05-20T15:16:27.302Z,4.80
2023-05-20T15:18:54.402Z,4.60
2023-05-20T15:21:21.799Z,4.60
2023-05-20T15:23:48.922Z,4.50
2023-05-20T15:26:16.001Z,5.50
2023-05-20T15:28:43.068Z,5.00
2023-05-20T15:31:10.203Z,4.90
2023-05-20T15:33:37.398Z,4.30
2023-05-20T15:36:04.928Z,4.00
2023-05-20T15:38:32.070Z,4.70
2023-05-20T15:40:59.975Z,4.80
2023-05-20T15:43:27.120Z,4.80
2023-05-20T15:45:54.904Z,4.90
2023-05-20T15:48:22.779Z,4.90
2023-05-20T15:50:49.962Z,4.50
2023-05-20T15:53:17.044Z,4.50
2023-05-20T15:55:44.956Z,4.30
2023-05-20T15:58:12.903Z,4.70
2023-05-20T16:00:40.167Z,4.80
2023-05-20T16:03:08.556Z,5.60
2023-05-20T16:05:36.097Z,5.80
2023-05-20T16:08:03.460Z,5.00
2023-05-20T16:10:33.364Z,5.50
2023-05-20T16:13:01.465Z,6.60
2023-05-20T16:15:31.848Z,6.10
2023-05-20T16:17:59.590Z,6.80
2023-05-20T16:20:26.833Z,5.40
2023-05-20T16:22:53.959Z,5.30
2023-05-20T16:25:21.120Z,6.90
2023-05-20T16:27:48.232Z,6.10
2023-05-20T16:30:15.551Z,6.10
2023-05-20T16:32:42.705Z,7.00
2023-05-20T16:35:10.161Z,6.80
2023-05-20T16:37:37.302Z,5.90
2023-05-20T16:40:05.006Z,4.70
2023-05-20T16:42:32.126Z,5.40
2023-05-20T16:44:59.246Z,5.20
2023-05-20T16:47:26.691Z,6.20
2023-05-20T16:49:53.845Z,6.20
2023-05-20T16:52:21.101Z,6.00
2023-05-20T16:54:48.398Z,6.70
2023-05-20T16:57:16.541Z,7.00
2023-05-20T16:59:43.629Z,6.70
2023-05-20T17:02:11.107Z,6.00
2023-05-20T17:04:38.773Z,6.60
2023-05-20T17:07:10.194Z,8.70
2023-05-20T17:09:37.728Z,6.90
2023-05-20T17:12:05.710Z,6.80
2023-05-20T17:14:32.926Z,6.80
2023-05-20T17:17:00.098Z,5.90
2023-05-20T17:19:27.396Z,7.30
2023-05-20T17:21:54.682Z,6.50
2023-05-20T17:24:21.741Z,6.80
2023-05-20T17:26:53.363Z,6.20
2023-05-20T17:29:20.840Z,5.60
2023-05-20T17:31:48.149Z,6.10
2023-05-20T17:34:15.477Z,6.40
2023-05-20T17:36:42.978Z,5.40
2023-05-20T17:39:10.434Z,5.80
2023-05-20T17:41:37.661Z,7.00
2023-05-20T17:44:05.013Z,5.70
2023-05-20T17:46:32.144Z,6.10
2023-05-20T17:48:59.332Z,6.50
2023-05-20T17:51:27.048Z,5.80
2023-05-20T17:53:54.367Z,6.80
2023-05-20T17:56:21.549Z,6.70
2023-05-20T17:58:48.666Z,7.20
2023-05-20T18:01:15.925Z,9.10
2023-05-20T18:03:43.232Z,9.20
2023-05-20T18:06:10.851Z,9.10
2023-05-20T18:08:37.974Z,9.50
2023-05-20T18:11:05.052Z,8.50
2023-05-20T18:13:32.162Z,8.30
2023-05-20T18:15:59.457Z,7.90
2023-05-20T18:18:26.738Z,9.80
2023-05-20T18:20:53.864Z,9.60
2023-05-20T18:23:21.297Z,9.50
2023-05-20T18:25:48.496Z,9.50
2023-05-20T18:28:15.910Z,8.80
2023-05-20T18:30:43.071Z,9.80
2023-05-20T18:33:10.336Z,9.40
2023-05-20T18:35:37.872Z,10.50
2023-05-20T18:38:05.071Z,9.00
2023-05-20T18:40:32.204Z,9.10
2023-05-20T18:42:59.551Z,8.70
2023-05-20T18:45:26.806Z,10.00
2023-05-20T18:47:54.781Z,8.40
2023-05-20T18:50:22.029Z,9.70
2023-05-20T18:52:49.169Z,9.50
2023-05-20T18:55:16.834Z,8.90
2023-05-20T18:57:44.039Z,9.50
2023-05-20T19:00:12.639Z,10.90
2023-05-20T19:02:41.268Z,9.70
2023-05-20T19:05:09.955Z,10.00
2023-05-20T19:07:41.223Z,8.40
2023-05-20T19:10:09.030Z,10.00
2023-05-20T19:12:36.131Z,8.90
2023-05-20T19:15:05.364Z,9.80
2023-05-20T19:17:32.614Z,8.40
2023-05-20T19:19:59.772Z,9.80
2023-05-20T19:22:26.934Z,10.80
2023-05-20T19:24:53.974Z,10.20
2023-05-20T19:27:21.090Z,11.10
2023-05-20T19:29:48.223Z,10.80
2023-05-20T19:32:15.736Z,11.20
2023-05-20T19:34:43.998Z,10.70
2023-05-20T19:37:11.695Z,10.30
2023-05-20T19:39:39.126Z,9.20
2023-05-20T19:42:06.401Z,10.50
2023-05-20T19:44:33.700Z,9.80
2023-05-20T19:47:00.966Z,8.50
2023-05-20T19:49:29.623Z,10.50
2023-05-20T19:51:57.194Z,8.80
2023-05-20T19:54:24.309Z,9.80
2023-05-20T19:56:51.431Z,10.10
2023-05-20T19:59:18.563Z,9.30
2023-05-20T20:01:45.719Z,8.80
2023-05-20T20:04:13.420Z,9.30
2023-05-20T20:06:40.666Z,10.00
2023-05-20T20:09:08.672Z,8.90
2023-05-20T20:11:36.160Z,9.80
2023-05-20T20:14:03.310Z,10.70
2023-05-20T20:16:30.706Z,11.10
2023-05-20T20:18:57.967Z,10.50
2023-05-20T20:21:25.997Z,10.00
2023-05-20T20:23:53.594Z,10.50
2023-05-20T20:26:23.799Z,11.10
2023-05-20T20:28:50.947Z,10.50
2023-05-20T20:31:18.138Z,10.70
2023-05-20T20:33:45.380Z,11.00
2023-05-20T20:36:12.530Z,10.90
2023-05-20T20:38:39.742Z,10.60
2023-05-20T20:41:09.624Z,10.90
2023-05-20T20:43:38.295Z,11.30
2023-05-20T20:46:06.503Z,12.10
2023-05-20T20:48:34.821Z,11.80
2023-05-20T20:51:02.330Z,11.30
2023-05-20T20:53:29.457Z,11.00
2023-05-20T20:55:57.194Z,12.80
2023-05-20T20:58:24.644Z,11.50
2023-05-20T21:00:53.246Z,12.30
2023-05-20T21:03:24.180Z,13.30
2023-05-20T21:05:52.086Z,12.70
2023-05-20T21:08:22.324Z,12.70
2023-05-20T21:10:49.477Z,12.10
2023-05-20T21:13:16.594Z,11.40
2023-05-20T21:15:46.633Z,12.30
2023-05-20T21:18:16.744Z,11.10
2023-05-20T21:20:43.777Z,11.30
2023-05-20T21:23:10.825Z,10.70
2023-05-20T21:25:37.967Z,11.40
2023-05-20T21:28:05.213Z,9.70
2023-05-20T21:30:32.282Z,10.00
2023-05-20T21:32:59.483Z,10.40
2023-05-20T21:35:26.659Z,10.50
2023-05-20T21:37:53.748Z,9.00
2023-05-20T21:40:20.868Z,11.00
2023-05-20T21:42:49.153Z,10.30
2023-05-20T21:45:17.792Z,10.00
2023-05-20T21:47:46.490Z,10.60
2023-05-20T21:50:13.781Z,10.10
2023-05-20T21:52:41.393Z,9.50
2023-05-20T21:55:09.796Z,11.00
2023-05-20T21:57:37.661Z,11.00
2023-05-20T22:00:10.583Z,10.30
2023-05-20T22:02:37.960Z,10.50
2023-05-20T22:05:05.476Z,12.00
2023-05-20T22:07:33.353Z,12.90
2023-05-20T22:10:02.529Z,12.20
2023-05-20T22:12:29.686Z,12.30
2023-05-20T22:14:57.140Z,11.80
2023-05-20T22:17:25.039Z,12.60
2023-05-20T22:19:53.775Z,11.50
2023-05-20T22:22:21.175Z,14.30
2023-05-20T22:24:48.239Z,14.00
2023-05-20T22:27:15.350Z,14.20
2023-05-20T22:29:42.464Z,15.00
2023-05-20T22:32:09.581Z,13.40
2023-05-20T22:34:36.600Z,17.10
2023-05-20T22:37:07.257Z,15.10
2023-05-20T22:39:34.408Z,14.50
2023-05-20T22:42:01.485Z,13.90
2023-05-20T22:44:28.641Z,15.80
2023-05-20T22:46:55.859Z,13.00
2023-05-20T22:49:24.098Z,12.20
2023-05-20T22:51:53.012Z,12.20
2023-05-20T22:54:20.261Z,12.80
2023-05-20T22:56:47.375Z,14.40
2023-05-20T22:59:14.550Z,12.20
2023-05-20T23:01:42.503Z,13.30
2023-05-20T23:04:09.606Z,13.90
2023-05-20T23:06:38.345Z,11.00
2023-05-20T23:09:06.298Z,12.30
2023-05-20T23:11:33.338Z,11.00
2023-05-20T23:14:00.559Z,11.70
2023-05-20T23:16:28.155Z,10.00
2023-05-20T23:18:56.238Z,11.10
2023-05-20T23:21:23.816Z,10.10
2023-05-20T23:23:50.924Z,10.90
2023-05-20T23:26:17.945Z,11.80
2023-05-20T23:28:45.029Z,11.80
2023-05-20T23:31:12.356Z,11.50
2023-05-20T23:33:39.769Z,11.80
2023-05-20T23:36:09.578Z,11.50
2023-05-20T23:38:36.702Z,11.20
2023-05-20T23:41:04.002Z,11.00
2023-05-20T23:43:31.277Z,9.60
2023-05-20T23:45:58.401Z,8.80
2023-05-20T23:48:26.641Z,11.40
2023-05-20T23:50:53.962Z,9.70
2023-05-20T23:53:21.460Z,10.10
2023-05-20T23:55:49.701Z,9.90
2023-05-20T23:58:16.992Z,10.70
